createdAt,value
2023-02-28T00:01:29.032Z,60.90
2023-02-28T00:03:57.044Z,60.80
2023-02-28T00:06:25.381Z,60.90
2023-02-28T00:08:52.761Z,61.00
2023-02-28T00:11:20.094Z,61.10
2023-02-28T00:13:48.381Z,61.10
2023-02-28T00:16:19.427Z,61.20
2023-02-28T00:18:48.658Z,61.20
2023-02-28T00:21:16.882Z,61.20
2023-02-28T00:23:44.718Z,61.30
2023-02-28T00:26:12.216Z,61.20
2023-02-28T00:28:41.960Z,61.20
2023-02-28T00:31:09.213Z,61.30
2023-02-28T00:33:36.292Z,61.30
2023-02-28T00:36:05.701Z,61.30
2023-02-28T00:38:32.748Z,61.40
2023-02-28T00:41:05.649Z,61.50
2023-02-28T00:43:37.480Z,61.40
2023-02-28T00:46:05.658Z,61.40
2023-02-28T00:48:33.152Z,61.40
2023-02-28T00:51:00.506Z,61.50
2023-02-28T00:53:28.731Z,61.60
2023-02-28T00:55:58.436Z,61.70
2023-02-28T00:58:26.706Z,61.90
2023-02-28T01:00:54.934Z,61.80
2023-02-28T01:03:23.647Z,61.80
2023-02-28T01:05:51.617Z,61.90
2023-02-28T01:08:18.790Z,62.20
2023-02-28T01:10:46.001Z,62.30
2023-02-28T01:13:13.868Z,62.30
2023-02-28T01:15:46.558Z,62.30
2023-02-28T01:18:13.703Z,62.40
2023-02-28T01:20:41.217Z,62.50
2023-02-28T01:23:10.147Z,62.50
2023-02-28T01:25:37.931Z,62.60
2023-02-28T01:28:06.946Z,62.60
2023-02-28T01:30:35.063Z,62.70
2023-02-28T01:33:02.289Z,62.60
2023-02-28T01:35:29.410Z,62.60
2023-02-28T01:38:00.985Z,62.50
2023-02-28T01:40:32.073Z,62.50
2023-02-28T01:42:59.231Z,62.40
2023-02-28T01:45:29.103Z,62.50
2023-02-28T01:48:01.482Z,62.20
2023-02-28T01:50:32.989Z,62.20
2023-02-28T01:53:05.536Z,62.40
2023-02-28T01:55:34.482Z,62.50
2023-02-28T01:58:05.597Z,62.60
2023-02-28T02:00:33.600Z,62.60
2023-02-28T02:03:05.914Z,62.70
2023-02-28T02:05:34.795Z,62.60
2023-02-28T02:08:08.607Z,62.60
2023-02-28T02:10:41.912Z,62.50
2023-02-28T02:13:48.028Z,62.70
2023-02-28T02:16:17.933Z,62.50
2023-02-28T02:19:08.572Z,62.40
2023-02-28T02:21:45.511Z,62.30
2023-02-28T02:24:25.624Z,62.30
2023-02-28T02:26:55.780Z,62.30
2023-02-28T02:30:00.662Z,62.30
2023-02-28T02:32:39.635Z,62.50
2023-02-28T02:35:20.837Z,62.30
2023-02-28T02:37:53.165Z,62.30
2023-02-28T02:40:26.742Z,62.30
2023-02-28T02:43:03.813Z,62.30
2023-02-28T02:45:56.066Z,62.30
2023-02-28T02:48:29.038Z,62.30
2023-02-28T02:51:05.798Z,62.50
2023-02-28T02:53:38.590Z,62.40
2023-02-28T02:56:08.286Z,62.50
2023-02-28T02:58:43.116Z,62.50
2023-02-28T03:01:17.159Z,62.50
2023-02-28T03:03:46.069Z,62.60
2023-02-28T03:06:13.583Z,62.60
2023-02-28T03:08:40.630Z,62.90
2023-02-28T03:11:15.074Z,62.60
2023-02-28T03:14:02.083Z,62.70
2023-02-28T03:16:48.560Z,62.60
2023-02-28T03:19:27.190Z,63.00
2023-02-28T03:22:09.408Z,62.70
2023-02-28T03:24:46.231Z,62.40
2023-02-28T03:27:26.024Z,62.40
2023-02-28T03:30:07.234Z,62.50
2023-02-28T03:32:43.712Z,62.50
2023-02-28T03:35:22.908Z,62.50
2023-02-28T03:38:14.970Z,62.50
2023-02-28T03:40:46.538Z,62.60
2023-02-28T03:43:19.694Z,62.50
2023-02-28T03:45:48.915Z,62.50
2023-02-28T03:48:29.885Z,62.50
2023-02-28T03:51:00.097Z,62.40
2023-02-28T03:53:59.603Z,62.50
2023-02-28T03:56:39.089Z,62.50
2023-02-28T03:59:15.545Z,62.40
2023-02-28T04:01:45.376Z,62.50
2023-02-28T04:04:13.694Z,62.50
2023-02-28T04:06:41.686Z,62.50
2023-02-28T04:11:45.504Z,62.50
2023-02-28T04:14:13.643Z,62.50
2023-02-28T04:16:43.247Z,62.60
2023-02-28T04:19:12.710Z,62.70
2023-02-28T04:21:42.351Z,63.60
2023-02-28T04:24:15.195Z,62.70
2023-02-28T04:26:45.745Z,62.70
2023-02-28T04:29:15.453Z,62.70
2023-02-28T04:31:42.456Z,62.60
2023-02-28T04:34:09.563Z,62.80
2023-02-28T04:36:36.657Z,63.00
2023-02-28T04:39:05.199Z,63.90
2023-02-28T04:41:33.160Z,63.10
2023-02-28T04:44:00.660Z,63.10
2023-02-28T04:46:27.967Z,62.90
2023-02-28T04:48:55.619Z,63.00
2023-02-28T04:51:22.833Z,62.90
2023-02-28T04:53:50.156Z,63.00
2023-02-28T04:56:18.751Z,63.90
2023-02-28T04:58:47.175Z,63.00
2023-02-28T05:01:24.653Z,63.00
2023-02-28T05:03:53.169Z,63.00
2023-02-28T05:06:24.788Z,63.00
2023-02-28T05:08:52.689Z,63.00
2023-02-28T05:11:34.700Z,62.80
2023-02-28T05:14:12.498Z,62.70
2023-02-28T05:16:39.710Z,62.80
2023-02-28T05:19:07.004Z,62.80
2023-02-28T05:21:42.607Z,62.80
2023-02-28T05:24:13.437Z,62.90
2023-02-28T05:26:43.025Z,63.00
2023-02-28T05:29:10.904Z,62.90
2023-02-28T05:31:38.757Z,62.80
2023-02-28T05:34:06.137Z,62.80
2023-02-28T05:36:33.363Z,63.00
2023-02-28T05:39:01.648Z,62.90
2023-02-28T05:41:29.145Z,63.00
2023-02-28T05:43:56.461Z,63.10
2023-02-28T05:46:24.596Z,63.10
2023-02-28T05:48:51.825Z,63.10
2023-02-28T05:51:19.036Z,63.00
2023-02-28T05:53:46.520Z,63.00
2023-02-28T05:56:13.607Z,63.00
2023-02-28T05:58:40.513Z,63.00
2023-02-28T06:01:25.968Z,63.00
2023-02-28T06:03:53.136Z,63.00
2023-02-28T06:06:20.287Z,63.00
2023-02-28T06:08:47.485Z,63.10
2023-02-28T06:11:14.936Z,63.00
2023-02-28T06:13:42.038Z,63.00
2023-02-28T06:16:12.001Z,63.10
2023-02-28T06:18:39.912Z,63.30
2023-02-28T06:21:07.105Z,63.70
2023-02-28T06:23:34.248Z,64.00
2023-02-28T06:26:01.570Z,64.00
2023-02-28T06:28:28.745Z,64.10
2023-02-28T06:30:55.778Z,64.20
2023-02-28T06:33:22.890Z,64.40
2023-02-28T06:35:53.623Z,64.80
2023-02-28T06:38:20.910Z,65.20
2023-02-28T06:40:55.235Z,65.40
2023-02-28T06:43:23.607Z,65.10
2023-02-28T06:45:50.674Z,64.50
2023-02-28T06:48:18.957Z,63.70
2023-02-28T06:50:46.229Z,62.20
2023-02-28T06:53:13.520Z,60.60
2023-02-28T06:55:40.987Z,59.70
2023-02-28T06:58:15.880Z,59.00
2023-02-28T07:00:44.949Z,58.50
2023-02-28T07:03:13.591Z,58.40
2023-02-28T07:05:41.044Z,58.60
2023-02-28T07:08:08.581Z,58.80
2023-02-28T07:10:37.850Z,59.20
2023-02-28T07:13:06.990Z,59.40
2023-02-28T07:15:34.238Z,59.20
2023-02-28T07:18:01.533Z,59.00
2023-02-28T07:20:28.663Z,58.80
2023-02-28T07:22:58.721Z,58.80
2023-02-28T07:25:27.411Z,58.70
2023-02-28T07:27:55.431Z,58.30
2023-02-28T07:30:22.526Z,58.30
2023-02-28T07:32:49.669Z,58.40
2023-02-28T07:35:16.810Z,58.60
2023-02-28T07:37:44.058Z,59.10
2023-02-28T07:40:15.373Z,58.20
2023-02-28T07:42:43.132Z,57.70
2023-02-28T07:45:12.684Z,57.40
2023-02-28T07:47:43.526Z,57.50
2023-02-28T07:50:12.612Z,57.40
2023-02-28T07:52:39.907Z,56.90
2023-02-28T07:55:08.571Z,56.30
2023-02-28T07:57:35.681Z,56.20
2023-02-28T08:00:06.779Z,56.10
2023-02-28T08:02:38.521Z,56.50
2023-02-28T08:05:06.899Z,57.20
2023-02-28T08:07:34.528Z,57.30
2023-02-28T08:10:07.361Z,56.40
2023-02-28T08:12:34.340Z,55.20
2023-02-28T08:15:01.296Z,54.60
2023-02-28T08:17:28.556Z,53.20
2023-02-28T08:19:55.768Z,51.60
2023-02-28T08:22:23.475Z,49.30
2023-02-28T08:24:52.623Z,49.10
2023-02-28T08:27:22.848Z,47.80
2023-02-28T08:29:51.046Z,47.10
2023-02-28T08:32:29.346Z,45.10
2023-02-28T08:34:57.618Z,42.90
2023-02-28T08:37:25.046Z,41.20
2023-02-28T08:39:55.580Z,41.10
2023-02-28T08:42:24.822Z,40.50
2023-02-28T08:44:52.895Z,38.30
2023-02-28T08:47:20.301Z,37.40
2023-02-28T08:49:47.412Z,35.20
2023-02-28T08:52:21.895Z,36.10
2023-02-28T08:54:49.132Z,34.40
2023-02-28T08:57:19.383Z,33.30
2023-02-28T08:59:46.515Z,33.50
2023-02-28T09:02:15.425Z,32.70
2023-02-28T09:04:42.797Z,32.60
2023-02-28T09:07:16.016Z,32.60
2023-02-28T09:09:54.889Z,32.60
2023-02-28T09:12:26.341Z,31.80
2023-02-28T09:14:53.661Z,30.40
2023-02-28T09:17:20.774Z,30.40
2023-02-28T09:19:50.233Z,29.40
2023-02-28T09:22:18.410Z,30.40
2023-02-28T09:24:49.595Z,28.90
2023-02-28T09:27:16.933Z,30.00
2023-02-28T09:29:45.072Z,30.40
2023-02-28T09:32:14.754Z,28.90
2023-02-28T09:34:42.950Z,28.60
2023-02-28T09:37:10.181Z,28.40
2023-02-28T09:39:38.236Z,27.00
2023-02-28T09:42:13.546Z,27.20
2023-02-28T09:44:46.234Z,27.30
2023-02-28T09:47:30.315Z,27.40
2023-02-28T09:50:04.423Z,27.30
2023-02-28T09:52:33.748Z,28.00
2023-02-28T09:55:32.759Z,28.20
2023-02-28T09:58:03.627Z,28.90
2023-02-28T10:00:38.299Z,29.30
2023-02-28T10:03:26.585Z,29.60
2023-02-28T10:06:17.035Z,30.00
2023-02-28T10:09:14.594Z,30.80
2023-02-28T10:11:42.456Z,31.00
2023-02-28T10:14:20.000Z,32.00
2023-02-28T10:17:14.582Z,33.10
2023-02-28T10:19:50.754Z,33.00
2023-02-28T10:22:31.300Z,33.40
2023-02-28T10:25:05.890Z,33.00
2023-02-28T10:27:34.293Z,32.00
2023-02-28T10:30:03.664Z,32.40
2023-02-28T10:32:34.901Z,33.20
2023-02-28T10:35:11.436Z,32.90
2023-02-28T10:37:43.538Z,32.20
2023-02-28T10:40:21.060Z,31.20
2023-02-28T10:43:00.089Z,31.10
2023-02-28T10:45:31.516Z,31.10
2023-02-28T10:48:17.070Z,31.00
2023-02-28T10:50:56.019Z,30.00
2023-02-28T10:53:23.153Z,30.00
2023-02-28T10:56:11.193Z,30.10
2023-02-28T10:59:01.436Z,30.60
2023-02-28T11:01:31.925Z,30.60
2023-02-28T11:04:00.244Z,30.40
2023-02-28T11:06:31.876Z,31.00
2023-02-28T11:09:02.102Z,31.30
2023-02-28T11:11:32.714Z,31.10
2023-02-28T11:14:07.003Z,30.90
2023-02-28T11:16:37.076Z,30.60
2023-02-28T11:19:06.420Z,31.40
2023-02-28T11:21:41.420Z,31.40
2023-02-28T11:24:27.426Z,31.60
2023-02-28T11:26:54.755Z,32.50
2023-02-28T11:29:29.638Z,32.70
2023-02-28T11:32:09.757Z,33.10
2023-02-28T11:34:38.699Z,32.90
2023-02-28T11:37:11.214Z,32.80
2023-02-28T11:39:38.494Z,32.90
2023-02-28T11:42:27.658Z,33.40
2023-02-28T11:45:23.936Z,33.40
2023-02-28T11:47:54.861Z,33.70
2023-02-28T11:50:40.147Z,33.60
2023-02-28T11:53:24.162Z,34.30
2023-02-28T11:56:01.770Z,34.00
2023-02-28T11:58:38.833Z,34.20
2023-02-28T12:01:09.039Z,34.40
2023-02-28T12:03:45.340Z,34.80
2023-02-28T12:06:39.941Z,35.60
2023-02-28T12:09:43.189Z,35.80
2023-02-28T12:12:40.029Z,35.30
2023-02-28T12:15:33.360Z,34.90
2023-02-28T12:18:06.292Z,34.70
2023-02-28T12:20:43.191Z,35.30
2023-02-28T12:23:25.828Z,35.50
2023-02-28T12:25:56.100Z,35.40
2023-02-28T12:28:27.798Z,35.30
2023-02-28T12:31:01.745Z,35.20
2023-02-28T12:33:35.912Z,35.10
2023-02-28T12:36:11.517Z,35.60
2023-02-28T12:39:02.874Z,36.00
2023-02-28T12:41:51.414Z,36.50
2023-02-28T12:44:45.658Z,36.40
2023-02-28T12:47:17.498Z,36.20
2023-02-28T12:49:53.144Z,36.60
2023-02-28T12:52:43.819Z,37.10
2023-02-28T12:55:32.403Z,36.20
2023-02-28T12:58:26.305Z,35.70
2023-02-28T13:01:12.184Z,35.90
2023-02-28T13:03:51.772Z,36.30
2023-02-28T13:06:40.381Z,35.80
2023-02-28T13:09:17.607Z,36.20
2023-02-28T13:11:58.975Z,36.30
2023-02-28T13:14:33.430Z,36.80
2023-02-28T13:17:12.944Z,36.80
2023-02-28T13:19:54.973Z,37.10
2023-02-28T13:22:45.467Z,37.20
2023-02-28T13:25:43.342Z,37.50
2023-02-28T13:28:12.748Z,37.90
2023-02-28T13:31:05.972Z,37.40
2023-02-28T13:33:33.160Z,37.50
2023-02-28T13:36:15.227Z,37.50
2023-02-28T13:38:44.229Z,37.30
2023-02-28T13:41:30.375Z,37.60
2023-02-28T13:44:02.478Z,37.90
2023-02-28T13:46:30.153Z,37.70
2023-02-28T13:48:57.425Z,37.80
2023-02-28T13:51:39.787Z,37.60
2023-02-28T13:54:25.572Z,38.10
2023-02-28T13:56:52.719Z,38.40
2023-02-28T13:59:48.110Z,38.50
2023-02-28T14:02:39.954Z,38.40
2023-02-28T14:05:26.645Z,38.30
2023-02-28T14:07:59.474Z,38.70
2023-02-28T14:10:47.803Z,39.70
2023-02-28T14:13:47.961Z,39.20
2023-02-28T14:16:22.212Z,39.30
2023-02-28T14:18:59.958Z,38.90
2023-02-28T14:21:31.478Z,39.00
2023-02-28T14:24:29.599Z,39.00
2023-02-28T14:27:15.547Z,39.10
2023-02-28T14:29:51.812Z,39.20
2023-02-28T14:32:49.919Z,38.50
2023-02-28T14:35:35.874Z,39.00
2023-02-28T14:38:08.380Z,38.60
2023-02-28T14:40:36.786Z,39.50
2023-02-28T14:43:06.785Z,39.20
2023-02-28T14:45:37.142Z,39.70
2023-02-28T14:48:11.386Z,39.60
2023-02-28T14:50:39.010Z,39.60
2023-02-28T14:53:16.369Z,39.80
2023-02-28T14:55:47.604Z,39.60
2023-02-28T14:58:33.685Z,39.40
2023-02-28T15:01:05.782Z,39.50
2023-02-28T15:03:36.327Z,39.70
2023-02-28T15:06:13.998Z,39.70
2023-02-28T15:08:41.723Z,39.80
2023-02-28T15:11:20.399Z,39.60
2023-02-28T15:13:51.197Z,39.60
2023-02-28T15:16:25.911Z,39.60
2023-02-28T15:18:53.758Z,39.80
2023-02-28T15:21:37.881Z,39.70
2023-02-28T15:24:26.826Z,39.80
2023-02-28T15:26:58.497Z,40.00
2023-02-28T15:29:28.537Z,40.20
2023-02-28T15:32:05.574Z,40.40
2023-02-28T15:34:43.985Z,40.50
2023-02-28T15:37:33.336Z,40.80
2023-02-28T15:40:07.244Z,41.00
2023-02-28T15:42:34.412Z,41.10
2023-02-28T15:45:01.544Z,40.80
2023-02-28T15:47:30.738Z,40.90
2023-02-28T15:50:04.204Z,41.10
2023-02-28T15:52:41.924Z,41.30
2023-02-28T15:55:22.184Z,41.40
2023-02-28T15:57:53.660Z,41.50
2023-02-28T16:00:24.074Z,41.50
2023-02-28T16:02:52.232Z,41.60
2023-02-28T16:05:32.850Z,41.80
2023-02-28T16:08:03.575Z,41.90
2023-02-28T16:10:30.904Z,42.20
2023-02-28T16:12:59.434Z,42.20
2023-02-28T16:15:29.996Z,42.20
2023-02-28T16:17:58.645Z,41.90
2023-02-28T16:20:32.112Z,42.00
2023-02-28T16:23:02.614Z,42.20
2023-02-28T16:25:41.993Z,42.30
2023-02-28T16:28:37.705Z,42.60
2023-02-28T16:31:07.651Z,42.60
2023-02-28T16:33:35.159Z,42.70
2023-02-28T16:36:02.618Z,42.80
2023-02-28T16:38:29.863Z,43.00
2023-02-28T16:41:00.840Z,43.30
2023-02-28T16:43:28.825Z,43.60
2023-02-28T16:46:01.159Z,43.80
2023-02-28T16:48:30.698Z,43.80
2023-02-28T16:50:58.208Z,44.10
2023-02-28T16:53:25.442Z,44.50
2023-02-28T16:55:52.704Z,44.60
2023-02-28T16:58:22.483Z,44.70
2023-02-28T17:00:57.934Z,44.70
2023-02-28T17:03:33.151Z,44.90
2023-02-28T17:06:01.183Z,45.20
2023-02-28T17:08:30.441Z,46.00
2023-02-28T17:10:57.586Z,45.60
2023-02-28T17:13:24.803Z,45.70
2023-02-28T17:15:52.261Z,45.80
2023-02-28T17:18:20.526Z,46.10
2023-02-28T17:20:48.619Z,46.40
2023-02-28T17:23:29.786Z,46.60
2023-02-28T17:25:58.253Z,46.80
2023-02-28T17:28:25.668Z,47.10
2023-02-28T17:30:52.982Z,47.10
2023-02-28T17:33:19.995Z,47.40
2023-02-28T17:35:47.188Z,47.50
2023-02-28T17:38:17.779Z,47.70
2023-02-28T17:40:45.484Z,47.90
2023-02-28T17:43:13.033Z,47.90
2023-02-28T17:45:40.166Z,48.10
2023-02-28T17:48:07.492Z,48.30
2023-02-28T17:50:34.667Z,48.30
2023-02-28T17:53:02.044Z,48.40
2023-02-28T17:55:29.203Z,48.70
2023-02-28T17:57:56.333Z,48.90
2023-02-28T18:00:25.000Z,48.90
2023-02-28T18:02:52.388Z,49.10
2023-02-28T18:05:19.611Z,49.30
2023-02-28T18:07:46.926Z,49.30
2023-02-28T18:10:20.578Z,49.30
2023-02-28T18:12:52.433Z,49.20
2023-02-28T18:15:22.056Z,49.30
2023-02-28T18:17:51.054Z,49.40
2023-02-28T18:20:19.063Z,49.60
2023-02-28T18:22:46.323Z,49.80
2023-02-28T18:25:19.183Z,49.80
2023-02-28T18:27:59.040Z,49.90
2023-02-28T18:30:33.434Z,50.20
2023-02-28T18:33:01.753Z,50.40
2023-02-28T18:35:35.648Z,50.50
2023-02-28T18:38:10.985Z,50.50
2023-02-28T18:40:38.288Z,50.70
2023-02-28T18:43:06.031Z,50.90
2023-02-28T18:45:36.667Z,50.90
2023-02-28T18:48:04.251Z,51.00
2023-02-28T18:50:31.785Z,51.00
2023-02-28T18:52:59.304Z,51.10
2023-02-28T18:55:27.942Z,51.30
2023-02-28T18:57:55.119Z,51.30
2023-02-28T19:00:22.961Z,51.40
2023-02-28T19:02:53.526Z,51.40
2023-02-28T19:05:20.728Z,51.60
2023-02-28T19:07:48.267Z,52.40
2023-02-28T19:10:15.949Z,51.90
2023-02-28T19:12:43.607Z,52.10
2023-02-28T19:15:11.674Z,52.20
2023-02-28T19:17:39.271Z,52.40
2023-02-28T19:20:08.252Z,52.50
2023-02-28T19:22:37.107Z,52.60
2023-02-28T19:25:05.883Z,52.60
2023-02-28T19:27:33.466Z,52.70
2023-02-28T19:30:00.566Z,52.70
2023-02-28T19:32:28.115Z,52.80
2023-02-28T19:34:55.322Z,52.80
2023-02-28T19:37:22.489Z,52.70
2023-02-28T19:39:49.590Z,52.80
2023-02-28T19:42:18.042Z,52.90
2023-02-28T19:44:45.625Z,52.90
2023-02-28T19:47:14.145Z,53.10
2023-02-28T19:49:41.751Z,53.30
2023-02-28T19:52:13.259Z,53.20
2023-02-28T19:54:42.830Z,53.30
2023-02-28T19:57:09.877Z,53.30
2023-02-28T19:59:39.787Z,53.20
2023-02-28T20:02:17.478Z,53.20
2023-02-28T20:04:48.853Z,53.30
2023-02-28T20:07:17.692Z,53.40
2023-02-28T20:09:45.648Z,53.40
2023-02-28T20:12:23.540Z,53.40
2023-02-28T20:14:51.703Z,53.20
2023-02-28T20:17:19.289Z,53.60
2023-02-28T20:19:47.291Z,53.70
2023-02-28T20:22:14.515Z,53.80
2023-02-28T20:24:41.596Z,53.80
2023-02-28T20:27:08.663Z,53.90
2023-02-28T20:29:36.114Z,54.00
2023-02-28T20:32:03.241Z,54.00
2023-02-28T20:34:30.421Z,54.00
2023-02-28T20:36:58.766Z,54.10
2023-02-28T20:39:25.933Z,54.10
2023-02-28T20:41:52.970Z,54.20
2023-02-28T20:44:20.139Z,54.30
2023-02-28T20:46:48.109Z,54.30
2023-02-28T20:49:15.883Z,54.40
2023-02-28T20:51:43.096Z,54.60
2023-02-28T20:54:14.060Z,54.60
2023-02-28T20:56:41.181Z,54.70
2023-02-28T20:59:11.156Z,54.80
2023-02-28T21:01:40.590Z,54.90
2023-02-28T21:04:08.222Z,55.00
2023-02-28T21:06:40.406Z,54.90
2023-02-28T21:09:09.401Z,55.00
2023-02-28T21:11:38.459Z,55.10
2023-02-28T21:14:14.933Z,55.00
2023-02-28T21:16:43.013Z,55.10
2023-02-28T21:19:10.705Z,55.20
2023-02-28T21:21:43.138Z,55.30
2023-02-28T21:24:16.930Z,55.40
2023-02-28T21:26:45.304Z,55.40
2023-02-28T21:29:13.517Z,55.50
2023-02-28T21:31:40.990Z,55.60
2023-02-28T21:34:09.775Z,55.60
2023-02-28T21:36:42.256Z,55.60
2023-02-28T21:39:17.252Z,55.80
2023-02-28T21:41:44.663Z,55.90
2023-02-28T21:44:18.662Z,56.00
2023-02-28T21:46:48.507Z,56.00
2023-02-28T21:49:16.628Z,56.00
2023-02-28T21:51:43.921Z,56.10
2023-02-28T21:54:12.490Z,56.20
2023-02-28T21:56:39.802Z,56.20
2023-02-28T21:59:09.434Z,56.30
2023-02-28T22:01:39.169Z,56.40
2023-02-28T22:04:08.474Z,56.40
2023-02-28T22:06:39.400Z,56.40
2023-02-28T22:09:08.954Z,56.50
2023-02-28T22:11:38.020Z,56.50
2023-02-28T22:14:06.807Z,56.60
2023-02-28T22:16:49.497Z,56.60
2023-02-28T22:19:20.482Z,56.60
2023-02-28T22:21:47.755Z,56.80
2023-02-28T22:24:17.685Z,56.90
2023-02-28T22:26:46.139Z,56.90
2023-02-28T22:29:13.213Z,56.90
2023-02-28T22:31:40.382Z,57.00
2023-02-28T22:34:11.020Z,57.10
2023-02-28T22:36:40.184Z,57.00
2023-02-28T22:39:07.384Z,57.10
2023-02-28T22:41:34.636Z,57.20
2023-02-28T22:44:03.663Z,57.30
2023-02-28T22:46:32.846Z,57.20
2023-02-28T22:49:01.361Z,57.20
2023-02-28T22:51:29.460Z,57.20
2023-02-28T22:53:58.289Z,57.30
2023-02-28T22:56:28.328Z,57.30
2023-02-28T22:58:57.842Z,57.30
2023-02-28T23:01:27.296Z,57.30
2023-02-28T23:03:54.549Z,57.40
2023-02-28T23:06:29.071Z,57.40
2023-02-28T23:08:59.274Z,57.40
2023-02-28T23:11:33.057Z,57.40
2023-02-28T23:14:00.785Z,57.50
2023-02-28T23:16:49.046Z,57.60
2023-02-28T23:19:29.656Z,57.60
2023-02-28T23:21:58.470Z,57.60
2023-02-28T23:24:28.057Z,57.60
2023-02-28T23:26:57.616Z,57.60
2023-02-28T23:29:25.813Z,57.60
2023-02-28T23:31:53.086Z,57.60
2023-02-28T23:34:30.542Z,57.60
2023-02-28T23:36:59.612Z,57.60
2023-02-28T23:39:28.675Z,57.80
2023-02-28T23:41:56.152Z,57.70
2023-02-28T23:44:23.090Z,57.80
2023-02-28T23:46:52.109Z,58.40
2023-02-28T23:49:20.566Z,57.90
2023-02-28T23:51:51.815Z,57.90
2023-02-28T23:54:19.402Z,57.90
2023-02-28T23:56:46.861Z,58.10
2023-02-28T23:59:13.931Z,58.20
